createdAt,value
2023-03-23T15:57:52.382Z,72.00
2023-03-23T16:00:20.958Z,72.10
2023-03-23T16:02:50.922Z,72.86
2023-03-23T16:05:17.370Z,73.60
2023-03-23T16:07:44.006Z,73.47
2023-03-23T16:10:18.962Z,73.45
2023-03-23T16:12:46.366Z,73.82
2023-03-23T16:15:14.187Z,74.01
2023-03-23T16:17:40.996Z,74.26
2023-03-23T16:20:19.529Z,74.60
2023-03-23T16:22:47.622Z,74.81
2023-03-23T16:25:15.257Z,75.70
2023-03-23T16:27:42.453Z,75.58
2023-03-23T16:30:19.839Z,75.97
2023-03-23T16:32:49.479Z,76.38
2023-03-23T16:35:16.733Z,76.50
2023-03-23T16:37:51.683Z,76.70
2023-03-23T16:40:38.491Z,76.80
2023-03-23T16:43:08.270Z,77.30
2023-03-23T16:45:37.696Z,77.48
2023-03-23T16:48:05.323Z,78.07
2023-03-23T16:50:34.376Z,78.29
2023-03-23T16:53:01.119Z,78.73
2023-03-23T16:55:28.290Z,78.72
2023-03-23T16:58:05.475Z,78.74
2023-03-23T17:00:40.838Z,78.77
2023-03-23T17:03:07.759Z,79.16
2023-03-23T17:05:36.110Z,79.66
2023-03-23T17:08:03.081Z,80.01
2023-03-23T17:10:31.043Z,80.29
2023-03-23T17:12:57.624Z,80.38
2023-03-23T17:15:25.596Z,80.25
2023-03-23T17:17:52.602Z,79.94
2023-03-23T17:20:19.509Z,80.03
2023-03-23T17:22:46.270Z,80.41
2023-03-23T17:25:13.276Z,79.98
2023-03-23T17:27:39.790Z,79.70
2023-03-23T17:30:07.649Z,79.69
2023-03-23T17:32:34.435Z,79.82
2023-03-23T17:35:01.690Z,79.65
2023-03-23T17:37:28.323Z,79.65
2023-03-23T17:39:54.718Z,79.66
2023-03-23T17:42:21.225Z,79.59
2023-03-23T17:44:47.701Z,79.71
2023-03-23T17:47:15.598Z,79.63
2023-03-23T17:49:42.048Z,80.07
2023-03-23T17:52:08.515Z,80.19
2023-03-23T17:54:35.012Z,80.48
2023-03-23T17:57:03.848Z,80.12
2023-03-23T17:59:30.924Z,80.27
2023-03-23T18:01:57.898Z,80.69
2023-03-23T18:04:26.870Z,80.85
2023-03-23T18:06:57.559Z,81.33
2023-03-23T18:09:25.461Z,81.36
2023-03-23T18:11:53.033Z,81.84
2023-03-23T18:14:19.784Z,82.12
2023-03-23T18:16:46.237Z,82.62
2023-03-23T18:19:12.767Z,82.92
2023-03-23T18:21:39.262Z,83.52
2023-03-23T18:24:06.197Z,83.25
2023-03-23T18:26:32.693Z,83.71
2023-03-23T18:28:59.238Z,83.71
2023-03-23T18:31:25.961Z,83.92
2023-03-23T18:33:54.914Z,84.14
2023-03-23T18:36:24.684Z,84.17
2023-03-23T18:38:53.918Z,84.43
2023-03-23T18:41:20.438Z,84.87
2023-03-23T18:43:46.885Z,85.05
2023-03-23T18:46:13.920Z,85.62
2023-03-23T18:48:40.565Z,86.07
2023-03-23T18:51:08.725Z,85.69
2023-03-23T18:53:35.294Z,86.06
2023-03-23T18:56:15.991Z,86.38
2023-03-23T18:58:43.582Z,86.90
2023-03-23T19:01:12.897Z,87.68
2023-03-23T19:03:40.366Z,88.16
2023-03-23T19:06:14.117Z,88.57
2023-03-23T19:08:40.844Z,88.61
2023-03-23T19:11:11.898Z,88.82
2023-03-23T19:13:40.395Z,88.78
2023-03-23T19:16:11.290Z,89.03
2023-03-23T19:18:37.787Z,89.18
2023-03-23T19:23:33.824Z,89.11
2023-03-23T19:26:00.554Z,88.96
2023-03-23T19:30:58.324Z,88.64
2023-03-23T19:33:26.160Z,88.24
2023-03-23T19:36:06.138Z,87.82
2023-03-23T19:38:35.420Z,87.94
2023-03-23T19:41:03.863Z,87.85
2023-03-23T19:43:31.979Z,88.49
2023-03-23T19:45:58.472Z,87.08
2023-03-23T19:48:25.371Z,87.16
2023-03-23T19:50:53.042Z,87.96
2023-03-23T19:53:20.484Z,86.96
2023-03-23T19:55:47.372Z,86.76
2023-03-23T19:58:14.171Z,85.80
2023-03-23T20:00:40.983Z,85.52
2023-03-23T20:03:07.782Z,85.06
2023-03-23T20:05:35.885Z,85.12
2023-03-23T20:08:04.658Z,85.30
2023-03-23T20:10:34.374Z,84.75
2023-03-23T20:13:02.593Z,84.02
2023-03-23T20:15:33.109Z,85.26
2023-03-23T20:18:00.008Z,84.58
2023-03-23T20:20:28.012Z,83.24
2023-03-23T20:22:57.398Z,83.85
2023-03-23T20:25:25.895Z,82.57
2023-03-23T20:27:52.584Z,80.19
2023-03-23T20:30:20.136Z,80.06
2023-03-23T20:32:46.978Z,79.02
2023-03-23T20:35:14.727Z,78.29
2023-03-23T20:37:41.527Z,78.64
2023-03-23T20:40:11.427Z,77.65
2023-03-23T20:42:38.897Z,74.67
2023-03-23T20:45:07.202Z,74.23
2023-03-23T20:47:33.831Z,71.58
2023-03-23T20:50:00.785Z,75.29
2023-03-23T20:52:27.406Z,72.46
2023-03-23T20:54:54.958Z,72.21
2023-03-23T20:57:22.170Z,73.91
2023-03-23T20:59:50.764Z,71.33
2023-03-23T21:02:18.800Z,72.81
2023-03-23T21:04:46.180Z,69.25
2023-03-23T21:07:13.458Z,66.48
2023-03-23T21:09:41.119Z,70.85
2023-03-23T21:12:09.429Z,68.40
2023-03-23T21:14:38.632Z,68.24
2023-03-23T21:17:06.904Z,69.96
2023-03-23T21:19:35.732Z,70.49
2023-03-23T21:22:02.238Z,67.60
2023-03-23T21:24:30.878Z,65.08
2023-03-23T21:27:00.423Z,71.33
2023-03-23T21:29:27.364Z,72.35
2023-03-23T21:32:05.279Z,71.34
2023-03-23T21:34:34.897Z,73.54
2023-03-23T21:37:01.326Z,70.93
2023-03-23T21:39:28.212Z,73.27
2023-03-23T21:41:54.877Z,72.78
2023-03-23T21:44:21.389Z,68.00
2023-03-23T21:46:47.843Z,69.21
2023-03-23T21:49:14.394Z,64.37
2023-03-23T21:51:42.765Z,65.55
2023-03-23T21:54:10.823Z,69.77
2023-03-23T21:56:37.878Z,70.44
2023-03-23T21:59:07.286Z,64.84
2023-03-23T22:01:36.799Z,68.04
2023-03-23T22:04:04.244Z,63.95
2023-03-23T22:06:31.316Z,62.45
2023-03-23T22:08:58.198Z,66.85
2023-03-23T22:11:27.826Z,63.97
2023-03-23T22:13:56.097Z,60.53
2023-03-23T22:16:23.239Z,57.75
2023-03-23T22:18:51.308Z,56.05
2023-03-23T22:21:19.848Z,55.24
2023-03-23T22:23:46.762Z,56.48
2023-03-23T22:26:14.592Z,57.81
2023-03-23T22:28:42.915Z,54.96
2023-03-23T22:31:18.343Z,52.07
2023-03-23T22:33:46.618Z,52.25
2023-03-23T22:36:14.036Z,60.50
2023-03-23T22:38:45.505Z,56.99
2023-03-23T22:41:24.924Z,51.14
2023-03-23T22:43:51.625Z,52.86
2023-03-23T22:46:18.483Z,51.55
2023-03-23T22:48:45.726Z,54.17
2023-03-23T22:51:14.412Z,50.82
2023-03-23T22:53:40.990Z,42.95
2023-03-23T22:56:08.014Z,43.81
2023-03-23T22:58:34.917Z,50.74
2023-03-23T23:01:07.921Z,44.04
2023-03-23T23:03:35.325Z,43.72
2023-03-23T23:06:02.114Z,50.48
2023-03-23T23:08:30.041Z,48.09
2023-03-23T23:10:58.403Z,47.19
2023-03-23T23:13:25.446Z,40.98
2023-03-23T23:15:54.065Z,40.92
2023-03-23T23:18:21.446Z,44.57
2023-03-23T23:20:50.201Z,49.42
2023-03-23T23:23:16.814Z,45.11
2023-03-23T23:25:44.007Z,45.55
2023-03-23T23:28:10.558Z,37.33
2023-03-23T23:30:37.305Z,43.73
2023-03-23T23:33:05.091Z,44.15
2023-03-23T23:35:31.685Z,36.88
2023-03-23T23:37:58.111Z,33.90
2023-03-23T23:40:24.564Z,32.81
2023-03-23T23:42:51.983Z,36.74
2023-03-23T23:45:19.582Z,37.62
2023-03-23T23:47:46.819Z,38.19
2023-03-23T23:50:14.111Z,40.14
2023-03-23T23:52:42.406Z,34.59
2023-03-23T23:55:10.152Z,33.50
2023-03-23T23:57:36.677Z,43.69
